createdAt,value
2018-08-07T00:00:48.740Z,7.43
2018-08-07T00:03:19.334Z,7.23
2018-08-07T00:05:49.206Z,7.63
2018-08-07T00:08:19.811Z,7.87
2018-08-07T00:10:50.325Z,7.70
2018-08-07T00:13:21.076Z,7.63
2018-08-07T00:15:51.807Z,7.10
2018-08-07T00:18:22.637Z,6.90
2018-08-07T00:20:53.174Z,7.13
2018-08-07T00:23:24.227Z,6.97
2018-08-07T00:25:54.682Z,6.17
2018-08-07T00:28:25.364Z,6.87
2018-08-07T00:30:55.997Z,6.70
2018-08-07T00:33:26.746Z,6.17
2018-08-07T00:35:57.446Z,6.37
2018-08-07T00:38:27.269Z,6.50
2018-08-07T00:40:57.061Z,5.93
2018-08-07T00:43:27.372Z,6.50
2018-08-07T00:45:58.256Z,6.20
2018-08-07T00:48:29.033Z,6.00
2018-08-07T00:50:59.553Z,6.50
2018-08-07T00:53:30.064Z,6.73
2018-08-07T00:56:00.518Z,6.33
2018-08-07T00:58:31.393Z,5.93
2018-08-07T01:01:02.413Z,7.00
2018-08-07T01:03:32.984Z,6.10
2018-08-07T01:06:04.035Z,6.00
2018-08-07T01:08:34.667Z,6.80
2018-08-07T01:11:05.502Z,7.10
2018-08-07T01:13:36.157Z,7.13
2018-08-07T01:16:07.212Z,7.27
2018-08-07T01:18:37.600Z,7.40
2018-08-07T01:21:07.337Z,7.57
2018-08-07T01:23:37.767Z,6.33
2018-08-07T01:26:08.383Z,7.30
2018-08-07T01:28:38.876Z,8.10
2018-08-07T01:31:09.842Z,7.20
2018-08-07T01:33:40.378Z,7.40
2018-08-07T01:36:11.329Z,6.97
2018-08-07T01:38:41.782Z,7.03
2018-08-07T01:41:12.436Z,7.00
2018-08-07T01:43:42.780Z,7.07
2018-08-07T01:46:13.289Z,6.77
2018-08-07T01:48:43.955Z,6.53
2018-08-07T01:51:14.481Z,7.00
2018-08-07T01:53:45.155Z,7.30
2018-08-07T01:56:15.583Z,7.50
2018-08-07T01:58:46.174Z,8.13
2018-08-07T02:01:16.658Z,7.60
2018-08-07T02:03:47.333Z,7.83
2018-08-07T02:06:17.966Z,7.87
2018-08-07T02:08:48.512Z,7.70
2018-08-07T02:11:19.249Z,7.50
2018-08-07T02:13:49.710Z,7.77
2018-08-07T02:16:20.316Z,7.70
2018-08-07T02:18:50.876Z,7.57
2018-08-07T02:21:21.534Z,7.83
2018-08-07T02:23:52.221Z,7.50
2018-08-07T02:26:22.898Z,7.47
2018-08-07T02:28:53.643Z,7.30
2018-08-07T02:31:24.223Z,7.83
2018-08-07T02:33:54.815Z,8.00
2018-08-07T02:36:25.294Z,7.87
2018-08-07T02:38:55.280Z,7.33
2018-08-07T02:41:25.838Z,7.23
2018-08-07T02:43:56.602Z,6.83
2018-08-07T02:46:27.354Z,7.93
2018-08-07T02:48:57.216Z,7.43
2018-08-07T02:51:27.668Z,7.43
2018-08-07T02:53:58.429Z,7.13
2018-08-07T02:56:28.993Z,7.00
2018-08-07T02:58:59.732Z,7.07
2018-08-07T03:01:30.316Z,7.03
2018-08-07T03:04:00.449Z,7.93
2018-08-07T03:06:30.882Z,7.70
2018-08-07T03:09:01.295Z,8.03
2018-08-07T03:11:31.907Z,8.03
2018-08-07T03:14:01.821Z,8.33
2018-08-07T03:16:31.692Z,8.33
2018-08-07T03:19:02.395Z,7.43
2018-08-07T03:21:33.353Z,8.20
2018-08-07T03:24:03.900Z,7.63
2018-08-07T03:26:34.423Z,8.27
2018-08-07T03:29:05.184Z,8.37
2018-08-07T03:31:35.646Z,8.17
2018-08-07T03:34:06.884Z,8.80
2018-08-07T03:36:37.616Z,8.70
2018-08-07T03:39:11.977Z,8.10
2018-08-07T03:41:42.550Z,7.90
2018-08-07T03:44:12.404Z,8.67
2018-08-07T03:46:43.151Z,9.20
2018-08-07T03:49:13.826Z,9.13
2018-08-07T03:51:43.673Z,8.57
2018-08-07T03:54:14.105Z,8.90
2018-08-07T03:56:44.694Z,8.90
2018-08-07T03:59:14.583Z,9.33
2018-08-07T04:01:45.186Z,9.13
2018-08-07T04:04:15.813Z,8.90
2018-08-07T04:06:46.806Z,9.20
2018-08-07T04:09:16.785Z,9.40
2018-08-07T04:11:47.227Z,9.43
2018-08-07T04:14:18.045Z,9.60
2018-08-07T04:16:56.928Z,9.70
2018-08-07T04:19:28.605Z,9.63
2018-08-07T04:21:58.734Z,9.80
2018-08-07T04:24:29.299Z,8.77
2018-08-07T04:26:59.822Z,9.50
2018-08-07T04:29:30.013Z,9.53
2018-08-07T04:32:00.629Z,8.90
2018-08-07T04:34:31.290Z,9.37
2018-08-07T04:37:01.254Z,8.50
2018-08-07T04:39:31.168Z,7.77
2018-08-07T04:42:00.914Z,7.97
2018-08-07T04:44:31.585Z,8.03
2018-08-07T04:47:01.419Z,8.63
2018-08-07T04:49:31.814Z,8.13
2018-08-07T04:52:02.511Z,8.00
2018-08-07T04:54:32.976Z,8.47
2018-08-07T04:57:03.690Z,8.57
2018-08-07T04:59:34.146Z,8.33
2018-08-07T05:02:05.261Z,8.00
2018-08-07T05:04:35.984Z,8.53
2018-08-07T05:07:06.497Z,7.87
2018-08-07T05:09:37.190Z,8.63
2018-08-07T05:12:07.772Z,8.93
2018-08-07T05:14:38.348Z,9.20
2018-08-07T05:17:08.815Z,9.47
2018-08-07T05:19:39.396Z,9.33
2018-08-07T05:22:10.177Z,8.63
2018-08-07T05:24:40.916Z,8.30
2018-08-07T05:27:10.929Z,8.77
2018-08-07T05:29:41.348Z,8.63
2018-08-07T05:32:12.448Z,8.77
2018-08-07T05:34:43.010Z,8.27
2018-08-07T05:37:14.077Z,8.47
2018-08-07T05:39:44.549Z,8.03
2018-08-07T05:42:15.928Z,8.07
2018-08-07T05:44:46.330Z,7.67
2018-08-07T05:47:16.846Z,8.10
2018-08-07T05:49:47.391Z,8.57
2018-08-07T05:52:18.322Z,8.63
2018-08-07T05:54:49.191Z,8.20
2018-08-07T05:57:19.730Z,8.83
2018-08-07T05:59:50.638Z,8.00
2018-08-07T06:02:21.145Z,8.27
2018-08-07T06:04:51.042Z,9.03
2018-08-07T06:07:21.539Z,8.33
2018-08-07T06:09:52.170Z,6.83
2018-08-07T06:12:22.940Z,7.10
2018-08-07T06:14:53.613Z,6.57
2018-08-07T06:17:24.068Z,6.13
2018-08-07T06:19:54.922Z,6.10
2018-08-07T06:22:25.366Z,6.10
2018-08-07T06:24:55.924Z,6.90
2018-08-07T06:27:26.328Z,5.63
2018-08-07T06:29:57.053Z,10.37
2018-08-07T06:32:27.739Z,11.37
2018-08-07T06:34:58.210Z,5.63
2018-08-07T06:37:29.137Z,9.50
2018-08-07T06:40:00.028Z,10.10
2018-08-07T06:42:30.168Z,19.50
2018-08-07T06:45:00.983Z,13.80
2018-08-07T06:47:31.453Z,10.73
2018-08-07T06:50:02.168Z,20.73
2018-08-07T06:52:32.655Z,6.67
2018-08-07T06:55:03.438Z,11.97
2018-08-07T06:57:34.190Z,11.10
2018-08-07T07:00:07.289Z,19.30
2018-08-07T07:02:37.831Z,15.90
2018-08-07T07:05:08.584Z,12.30
2018-08-07T07:07:39.516Z,21.90
2018-08-07T07:10:11.849Z,6.07
2018-08-07T07:12:43.356Z,4.13
2018-08-07T07:15:14.805Z,6.77
2018-08-07T07:17:46.532Z,14.77
2018-08-07T07:20:17.352Z,19.70
2018-08-07T07:22:49.609Z,6.13
2018-08-07T07:25:20.348Z,4.60
2018-08-07T07:27:51.047Z,3.87
2018-08-07T07:30:22.288Z,5.53
2018-08-07T07:32:54.042Z,11.63
2018-08-07T07:35:24.963Z,16.73
2018-08-07T07:37:55.569Z,9.73
2018-08-07T07:40:26.414Z,15.70
2018-08-07T07:42:56.425Z,5.97
2018-08-07T07:45:26.894Z,4.40
2018-08-07T07:47:57.612Z,4.37
2018-08-07T07:50:27.529Z,4.13
2018-08-07T07:52:58.030Z,4.40
2018-08-07T07:55:28.625Z,8.67
2018-08-07T07:57:58.834Z,12.27
2018-08-07T08:00:29.180Z,4.47
2018-08-07T08:02:59.692Z,6.50
2018-08-07T08:05:30.465Z,10.50
2018-08-07T08:08:01.029Z,4.77
2018-08-07T08:10:30.997Z,11.37
2018-08-07T08:13:01.083Z,5.07
2018-08-07T08:15:31.481Z,4.83
2018-08-07T08:18:01.627Z,4.70
2018-08-07T08:20:32.163Z,8.30
2018-08-07T08:23:02.031Z,11.90
2018-08-07T08:25:32.569Z,15.63
2018-08-07T08:28:03.233Z,16.67
2018-08-07T08:30:34.046Z,6.33
2018-08-07T08:33:04.731Z,5.20
2018-08-07T08:35:36.097Z,5.60
2018-08-07T08:38:07.404Z,4.30
2018-08-07T08:40:38.589Z,5.90
2018-08-07T08:43:09.433Z,6.90
2018-08-07T08:45:40.857Z,8.97
2018-08-07T08:48:17.893Z,5.53
2018-08-07T08:50:49.190Z,5.30
2018-08-07T08:53:19.191Z,12.93
2018-08-07T08:55:51.329Z,9.20
2018-08-07T08:58:21.980Z,9.27
2018-08-07T09:00:52.988Z,13.33
2018-08-07T09:03:23.806Z,10.23
2018-08-07T09:05:54.880Z,6.70
2018-08-07T09:08:25.655Z,6.10
2018-08-07T09:10:56.413Z,5.43
2018-08-07T09:13:27.111Z,12.00
2018-08-07T09:15:57.778Z,10.30
2018-08-07T09:18:28.368Z,9.17
2018-08-07T09:20:59.054Z,5.40
2018-08-07T09:23:29.006Z,9.80
2018-08-07T09:25:59.754Z,5.53
2018-08-07T09:28:29.637Z,5.37
2018-08-07T09:31:00.162Z,6.00
2018-08-07T09:33:30.696Z,10.60
2018-08-07T09:36:01.327Z,5.17
2018-08-07T09:38:31.574Z,7.27
2018-08-07T09:41:02.289Z,11.07
2018-08-07T09:43:32.974Z,8.87
2018-08-07T09:46:03.859Z,5.47
2018-08-07T09:48:34.749Z,4.97
2018-08-07T09:51:05.396Z,7.10
2018-08-07T09:53:36.009Z,7.37
2018-08-07T09:56:06.810Z,6.60
2018-08-07T09:58:36.967Z,6.13
2018-08-07T10:01:12.726Z,10.13
2018-08-07T10:03:43.701Z,10.47
2018-08-07T10:06:14.338Z,7.23
2018-08-07T10:08:45.193Z,6.20
2018-08-07T10:11:16.002Z,6.53
2018-08-07T10:13:46.435Z,5.50
2018-08-07T10:16:17.007Z,4.43
2018-08-07T10:18:46.969Z,5.50
2018-08-07T10:21:17.300Z,4.97
2018-08-07T10:23:48.004Z,4.80
2018-08-07T10:26:18.921Z,6.37
2018-08-07T10:28:49.423Z,5.03
2018-08-07T10:31:20.008Z,4.40
2018-08-07T10:33:50.635Z,4.13
2018-08-07T10:36:21.252Z,5.07
2018-08-07T10:38:51.735Z,4.77
2018-08-07T10:41:22.393Z,4.63
2018-08-07T10:43:53.020Z,5.13
2018-08-07T10:46:23.563Z,4.80
2018-08-07T10:48:54.471Z,7.57
2018-08-07T10:51:25.004Z,5.00
2018-08-07T10:53:56.282Z,5.10
2018-08-07T10:56:26.868Z,5.17
2018-08-07T10:58:57.508Z,5.10
2018-08-07T11:01:35.093Z,5.33
2018-08-07T11:04:06.085Z,5.60
2018-08-07T11:06:36.940Z,6.17
2018-08-07T11:09:10.475Z,5.27
2018-08-07T11:11:41.024Z,6.10
2018-08-07T11:14:10.935Z,6.10
2018-08-07T11:16:41.845Z,6.20
2018-08-07T11:19:12.668Z,5.90
2018-08-07T11:21:43.498Z,5.60
2018-08-07T11:24:14.102Z,5.50
2018-08-07T11:26:44.066Z,6.33
2018-08-07T11:29:14.637Z,5.53
2018-08-07T11:31:45.421Z,6.03
2018-08-07T11:34:16.159Z,5.27
2018-08-07T11:36:47.085Z,5.33
2018-08-07T11:39:17.741Z,5.43
2018-08-07T11:41:48.158Z,6.47
2018-08-07T11:44:18.813Z,5.30
2018-08-07T11:46:50.600Z,5.20
2018-08-07T11:49:20.777Z,6.40
2018-08-07T11:51:51.564Z,7.27
2018-08-07T11:54:23.029Z,7.13
2018-08-07T11:56:53.692Z,6.33
2018-08-07T11:59:23.606Z,5.17
2018-08-07T12:01:54.799Z,5.40
2018-08-07T12:04:25.946Z,5.90
2018-08-07T12:06:56.593Z,5.00
2018-08-07T12:09:27.118Z,5.00
2018-08-07T12:11:58.122Z,4.80
2018-08-07T12:14:28.871Z,5.77
2018-08-07T12:16:59.482Z,4.90
2018-08-07T12:19:30.095Z,4.60
2018-08-07T12:22:00.466Z,4.93
2018-08-07T12:24:31.766Z,5.60
2018-08-07T12:27:02.403Z,5.33
2018-08-07T12:29:33.110Z,5.53
2018-08-07T12:32:02.952Z,7.40
2018-08-07T12:34:33.366Z,6.93
2018-08-07T12:37:09.744Z,4.47
2018-08-07T12:39:42.439Z,4.70
2018-08-07T12:42:15.644Z,5.60
2018-08-07T12:44:48.379Z,5.43
2018-08-07T12:47:20.533Z,7.53
2018-08-07T12:49:53.084Z,6.73
2018-08-07T12:52:24.670Z,6.73
2018-08-07T12:54:55.453Z,5.80
2018-08-07T12:57:26.845Z,5.40
2018-08-07T13:00:00.280Z,5.00
2018-08-07T13:02:32.370Z,5.37
2018-08-07T13:05:02.989Z,5.40
2018-08-07T13:07:33.543Z,5.27
2018-08-07T13:10:04.488Z,6.10
2018-08-07T13:12:35.064Z,5.50
2018-08-07T13:15:06.565Z,5.17
2018-08-07T13:17:37.774Z,5.83
2018-08-07T13:20:10.151Z,5.00
2018-08-07T13:22:42.046Z,4.70
2018-08-07T13:25:14.543Z,4.87
2018-08-07T13:27:45.195Z,4.90
2018-08-07T13:30:18.503Z,5.60
2018-08-07T13:32:49.138Z,4.87
2018-08-07T13:35:23.450Z,4.53
2018-08-07T13:37:54.259Z,4.93
2018-08-07T13:40:25.956Z,5.37
2018-08-07T13:42:59.294Z,4.90
2018-08-07T13:45:30.259Z,4.80
2018-08-07T13:48:01.152Z,4.47
2018-08-07T13:50:31.743Z,4.70
2018-08-07T13:53:02.920Z,4.37
2018-08-07T13:55:33.484Z,4.70
2018-08-07T13:58:04.219Z,5.40
2018-08-07T14:00:34.967Z,4.83
2018-08-07T14:03:05.738Z,6.90
2018-08-07T14:05:36.455Z,5.73
2018-08-07T14:08:07.171Z,6.80
2018-08-07T14:10:37.784Z,5.23
2018-08-07T14:13:08.255Z,5.07
2018-08-07T14:15:38.920Z,5.17
2018-08-07T14:18:09.565Z,4.73
2018-08-07T14:20:40.131Z,4.47
2018-08-07T14:23:10.851Z,4.67
2018-08-07T14:25:41.634Z,4.80
2018-08-07T14:28:11.574Z,4.40
2018-08-07T14:30:42.100Z,5.13
2018-08-07T14:33:12.762Z,5.47
2018-08-07T14:35:43.316Z,3.93
2018-08-07T14:38:14.933Z,5.10
2018-08-07T14:40:46.469Z,4.53
2018-08-07T14:43:17.158Z,4.13
2018-08-07T14:45:47.746Z,3.80
2018-08-07T14:48:18.643Z,4.37
2018-08-07T14:50:49.771Z,4.10
2018-08-07T14:53:20.443Z,4.10
2018-08-07T14:55:51.206Z,3.97
2018-08-07T14:58:21.806Z,3.60
2018-08-07T15:00:52.710Z,4.13
2018-08-07T15:03:23.724Z,5.33
2018-08-07T15:05:54.376Z,4.10
2018-08-07T15:08:25.426Z,3.87
2018-08-07T15:10:56.491Z,4.03
2018-08-07T15:13:27.244Z,4.63
2018-08-07T15:15:57.111Z,4.37
2018-08-07T15:18:27.530Z,4.00
2018-08-07T15:20:58.157Z,4.27
2018-08-07T15:23:28.993Z,5.10
2018-08-07T15:25:59.462Z,4.77
2018-08-07T15:28:29.270Z,4.37
2018-08-07T15:30:59.856Z,4.50
2018-08-07T15:33:30.433Z,3.97
2018-08-07T15:36:00.952Z,4.60
2018-08-07T15:38:31.698Z,4.87
2018-08-07T15:41:02.331Z,4.37
2018-08-07T15:43:33.001Z,4.60
2018-08-07T15:46:04.640Z,5.03
2018-08-07T15:48:35.637Z,4.63
2018-08-07T15:51:06.198Z,4.73
2018-08-07T15:53:36.120Z,5.03
2018-08-07T15:56:06.836Z,5.40
2018-08-07T15:58:36.732Z,4.90
2018-08-07T16:01:07.345Z,5.17
2018-08-07T16:03:37.995Z,4.70
2018-08-07T16:06:08.586Z,4.57
2018-08-07T16:08:39.072Z,4.97
2018-08-07T16:11:09.756Z,4.70
2018-08-07T16:13:40.410Z,5.30
2018-08-07T16:16:11.315Z,5.13
2018-08-07T16:18:41.910Z,5.63
2018-08-07T16:21:12.886Z,5.50
2018-08-07T16:23:43.687Z,4.87
2018-08-07T16:26:14.578Z,5.53
2018-08-07T16:28:45.249Z,7.13
2018-08-07T16:31:16.026Z,7.30
2018-08-07T16:33:46.594Z,7.67
2018-08-07T16:36:17.493Z,7.83
2018-08-07T16:38:48.122Z,8.20
2018-08-07T16:41:18.892Z,6.97
2018-08-07T16:43:48.961Z,7.03
2018-08-07T16:46:19.573Z,9.27
2018-08-07T16:48:49.666Z,9.00
2018-08-07T16:51:20.093Z,7.53
2018-08-07T16:53:51.023Z,7.73
2018-08-07T16:56:21.629Z,8.67
2018-08-07T16:58:52.152Z,11.73
2018-08-07T17:01:23.465Z,15.60
2018-08-07T17:03:54.178Z,11.40
2018-08-07T17:06:24.590Z,13.97
2018-08-07T17:08:55.328Z,11.03
2018-08-07T17:11:26.334Z,9.37
2018-08-07T17:13:57.158Z,6.80
2018-08-07T17:16:27.998Z,8.80
2018-08-07T17:18:58.639Z,9.40
2018-08-07T17:21:29.308Z,14.47
2018-08-07T17:23:59.941Z,10.13
2018-08-07T17:26:30.399Z,8.90
2018-08-07T17:29:01.091Z,8.90
2018-08-07T17:31:31.788Z,8.87
2018-08-07T17:34:02.472Z,7.73
2018-08-07T17:36:33.200Z,12.53
2018-08-07T17:39:04.707Z,10.27
2018-08-07T17:41:35.311Z,20.60
2018-08-07T17:44:06.094Z,27.67
2018-08-07T17:46:36.865Z,28.17
2018-08-07T17:49:07.914Z,16.73
2018-08-07T17:51:38.712Z,16.07
2018-08-07T17:54:09.575Z,16.70
2018-08-07T17:56:40.281Z,15.83
2018-08-07T17:59:11.013Z,12.30
2018-08-07T18:01:41.838Z,15.47
2018-08-07T18:04:13.627Z,9.03
2018-08-07T18:06:44.411Z,12.53
2018-08-07T18:09:15.661Z,18.97
2018-08-07T18:11:46.470Z,12.10
2018-08-07T18:14:17.143Z,18.00
2018-08-07T18:16:47.912Z,10.33
2018-08-07T18:19:18.525Z,15.80
2018-08-07T18:21:49.514Z,16.60
2018-08-07T18:24:20.170Z,15.00
2018-08-07T18:26:50.858Z,8.20
2018-08-07T18:29:21.395Z,7.80
2018-08-07T18:31:52.473Z,11.70
2018-08-07T18:34:23.015Z,7.10
2018-08-07T18:36:53.498Z,6.07
2018-08-07T18:39:24.078Z,4.90
2018-08-07T18:41:54.911Z,4.83
2018-08-07T18:44:25.453Z,5.00
2018-08-07T18:46:56.211Z,6.93
2018-08-07T18:49:26.418Z,6.17
2018-08-07T18:51:56.944Z,6.30
2018-08-07T18:54:27.576Z,7.07
2018-08-07T18:56:58.557Z,6.47
2018-08-07T18:59:30.039Z,5.67
2018-08-07T19:02:00.883Z,6.50
2018-08-07T19:04:32.106Z,5.60
2018-08-07T19:07:03.343Z,6.20
2018-08-07T19:09:34.783Z,8.27
2018-08-07T19:12:06.943Z,6.30
2018-08-07T19:14:39.216Z,5.50
2018-08-07T19:17:10.649Z,17.37
2018-08-07T19:19:43.771Z,23.00
2018-08-07T19:22:16.203Z,19.13
2018-08-07T19:24:48.241Z,24.80
2018-08-07T19:27:20.042Z,25.10
2018-08-07T19:29:51.692Z,25.13
2018-08-07T19:32:23.062Z,28.43
2018-08-07T19:34:54.873Z,15.50
2018-08-07T19:37:26.335Z,14.43
2018-08-07T19:39:57.466Z,18.33
2018-08-07T19:42:29.046Z,12.23
2018-08-07T19:45:01.015Z,10.90
2018-08-07T19:47:32.846Z,7.80
2018-08-07T19:50:04.430Z,12.33
2018-08-07T19:52:34.842Z,16.00
2018-08-07T19:55:06.043Z,17.07
2018-08-07T19:57:37.005Z,19.13
2018-08-07T20:00:15.098Z,21.30
2018-08-07T20:02:46.266Z,9.07
2018-08-07T20:05:17.364Z,17.97
2018-08-07T20:07:48.246Z,14.70
2018-08-07T20:10:20.085Z,16.90
2018-08-07T20:12:52.514Z,16.80
2018-08-07T20:15:26.224Z,16.17
2018-08-07T20:17:58.335Z,18.13
2018-08-07T20:20:30.028Z,20.70
2018-08-07T20:23:01.754Z,23.03
2018-08-07T20:25:34.009Z,20.13
2018-08-07T20:28:06.827Z,22.87
2018-08-07T20:30:39.908Z,18.93
2018-08-07T20:33:11.962Z,21.23
2018-08-07T20:35:43.728Z,15.90
2018-08-07T20:38:15.384Z,11.67
2018-08-07T20:40:47.997Z,11.93
2018-08-07T20:43:21.477Z,10.83
2018-08-07T20:45:53.044Z,8.50
2018-08-07T20:48:23.706Z,7.50
2018-08-07T20:50:55.023Z,6.70
2018-08-07T20:53:26.612Z,8.37
2018-08-07T20:55:57.244Z,8.40
2018-08-07T20:58:36.107Z,7.80
2018-08-07T21:01:07.555Z,8.27
2018-08-07T21:03:44.878Z,6.93
2018-08-07T21:06:17.218Z,7.20
2018-08-07T21:08:48.322Z,6.90
2018-08-07T21:11:20.344Z,6.00
2018-08-07T21:13:53.537Z,5.30
2018-08-07T21:16:24.420Z,4.87
2018-08-07T21:18:56.331Z,5.73
2018-08-07T21:21:27.542Z,6.03
2018-08-07T21:24:00.182Z,5.17
2018-08-07T21:26:33.683Z,5.50
2018-08-07T21:29:04.397Z,5.23
2018-08-07T21:31:35.136Z,5.13
2018-08-07T21:34:05.387Z,5.30
2018-08-07T21:36:36.242Z,4.80
2018-08-07T21:39:10.357Z,5.10
2018-08-07T21:41:40.899Z,5.60
2018-08-07T21:44:11.881Z,5.13
2018-08-07T21:46:42.511Z,5.43
2018-08-07T21:49:13.140Z,5.53
2018-08-07T21:51:43.172Z,5.23
2018-08-07T21:54:13.829Z,5.70
2018-08-07T21:56:44.534Z,4.77
2018-08-07T21:59:15.246Z,5.27
2018-08-07T22:01:45.952Z,5.03
2018-08-07T22:04:16.582Z,5.17
2018-08-07T22:06:47.171Z,5.10
2018-08-07T22:09:17.947Z,5.47
2018-08-07T22:11:48.428Z,5.57
2018-08-07T22:14:18.863Z,5.33
2018-08-07T22:16:48.814Z,5.03
2018-08-07T22:19:19.342Z,5.23
2018-08-07T22:21:50.038Z,5.10
2018-08-07T22:24:20.764Z,5.67
2018-08-07T22:26:51.543Z,5.40
2018-08-07T22:29:22.115Z,4.97
2018-08-07T22:31:52.740Z,5.10
2018-08-07T22:34:23.190Z,5.20
2018-08-07T22:36:53.018Z,5.17
2018-08-07T22:39:23.421Z,5.97
2018-08-07T22:41:54.182Z,5.17
2018-08-07T22:44:25.044Z,5.33
2018-08-07T22:46:55.554Z,5.27
2018-08-07T22:49:26.022Z,5.23
2018-08-07T22:51:56.672Z,5.23
2018-08-07T22:54:27.481Z,5.40
2018-08-07T22:56:57.932Z,5.20
2018-08-07T22:59:28.416Z,5.43
2018-08-07T23:01:59.405Z,5.70
2018-08-07T23:04:29.926Z,5.23
2018-08-07T23:07:00.522Z,5.47
2018-08-07T23:09:31.201Z,5.73
2018-08-07T23:12:04.717Z,5.33
2018-08-07T23:14:35.358Z,6.20
2018-08-07T23:17:06.018Z,5.33
2018-08-07T23:19:36.450Z,6.17
2018-08-07T23:22:07.260Z,5.60
2018-08-07T23:24:37.995Z,6.20
2018-08-07T23:27:08.718Z,5.90
2018-08-07T23:29:39.667Z,5.50
2018-08-07T23:32:10.222Z,5.93
2018-08-07T23:34:40.846Z,5.57
2018-08-07T23:37:11.422Z,5.47
2018-08-07T23:39:41.978Z,5.60
2018-08-07T23:42:12.395Z,6.07
2018-08-07T23:44:43.147Z,6.20
2018-08-07T23:47:13.531Z,6.07
2018-08-07T23:49:44.041Z,5.97
2018-08-07T23:52:14.765Z,5.90
2018-08-07T23:54:45.197Z,6.00
2018-08-07T23:57:15.525Z,6.40
2018-08-07T23:59:46.189Z,6.33
